sensor_id;sensor_type;location;lat;lon;timestamp;pressure;altitude;pressure_sealevel;temperature;humidity
75938;BME280;64615;32.062;34.834;2023-12-04T00:00:12;100924.41;;;23.95;50.01
75938;BME280;64615;32.062;34.834;2023-12-04T00:02:39;100921.38;;;23.92;49.70
75938;BME280;64615;32.062;34.834;2023-12-04T00:05:06;100928.75;;;23.91;50.16
75938;BME280;64615;32.062;34.834;2023-12-04T00:07:32;100925.44;;;23.89;49.76
75938;BME280;64615;32.062;34.834;2023-12-04T00:09:57;100925.97;;;23.86;49.80
75938;BME280;64615;32.062;34.834;2023-12-04T00:12:23;100929.78;;;23.85;49.82
75938;BME280;64615;32.062;34.834;2023-12-04T00:14:48;100919.16;;;23.84;50.22
75938;BME280;64615;32.062;34.834;2023-12-04T00:17:14;100921.06;;;23.83;50.18
75938;BME280;64615;32.062;34.834;2023-12-04T00:19:39;100923.78;;;23.83;50.12
75938;BME280;64615;32.062;34.834;2023-12-04T00:22:05;100921.31;;;23.82;50.26
75938;BME280;64615;32.062;34.834;2023-12-04T00:24:31;100921.84;;;23.79;49.98
75938;BME280;64615;32.062;34.834;2023-12-04T00:26:56;100925.38;;;23.79;50.13
75938;BME280;64615;32.062;34.834;2023-12-04T00:29:22;100927.03;;;23.80;50.28
75938;BME280;64615;32.062;34.834;2023-12-04T00:31:47;100920.50;;;23.81;50.11
75938;BME280;64615;32.062;34.834;2023-12-04T00:34:13;100923.22;;;23.81;50.07
75938;BME280;64615;32.062;34.834;2023-12-04T00:36:39;100920.50;;;23.81;50.16
75938;BME280;64615;32.062;34.834;2023-12-04T00:39:04;100926.19;;;23.80;50.43
75938;BME280;64615;32.062;34.834;2023-12-04T00:41:30;100932.47;;;23.80;49.95
75938;BME280;64615;32.062;34.834;2023-12-04T00:43:57;100923.72;;;23.78;49.89
75938;BME280;64615;32.062;34.834;2023-12-04T00:46:22;100921.28;;;23.77;50.20
75938;BME280;64615;32.062;34.834;2023-12-04T00:48:48;100928.59;;;23.76;50.13
75938;BME280;64615;32.062;34.834;2023-12-04T00:51:14;100928.59;;;23.76;50.13
75938;BME280;64615;32.062;34.834;2023-12-04T00:53:40;100930.53;;;23.76;50.18
75938;BME280;64615;32.062;34.834;2023-12-04T00:56:05;100931.06;;;23.78;50.28
75938;BME280;64615;32.062;34.834;2023-12-04T00:58:31;100919.94;;;23.79;50.54
75938;BME280;64615;32.062;34.834;2023-12-04T01:00:57;100919.13;;;23.79;50.20
75938;BME280;64615;32.062;34.834;2023-12-04T01:03:22;100906.09;;;23.81;50.13
75938;BME280;64615;32.062;34.834;2023-12-04T01:05:48;100916.19;;;23.85;50.12
75938;BME280;64615;32.062;34.834;2023-12-04T01:08:14;100925.69;;;23.88;50.48
75938;BME280;64615;32.062;34.834;2023-12-04T01:10:39;100925.44;;;23.89;50.13
75938;BME280;64615;32.062;34.834;2023-12-04T01:13:05;100924.63;;;23.89;50.07
75938;BME280;64615;32.062;34.834;2023-12-04T01:15:31;100926.28;;;23.90;50.19
75938;BME280;64615;32.062;34.834;2023-12-04T01:17:56;100927.91;;;23.91;50.06
75938;BME280;64615;32.062;34.834;2023-12-04T01:20:22;100924.38;;;23.90;50.44
75938;BME280;64615;32.062;34.834;2023-12-04T01:22:48;100926.00;;;23.91;50.30
75938;BME280;64615;32.062;34.834;2023-12-04T01:25:14;100931.44;;;23.91;49.97
75938;BME280;64615;32.062;34.834;2023-12-04T01:27:39;100921.09;;;23.88;50.33
75938;BME280;64615;32.062;34.834;2023-12-04T01:30:06;100922.94;;;23.83;50.38
75938;BME280;64615;32.062;34.834;2023-12-04T01:32:34;100921.59;;;23.80;50.51
75938;BME280;64615;32.062;34.834;2023-12-04T01:35:00;100924.81;;;23.77;50.39
75938;BME280;64615;32.062;34.834;2023-12-04T01:37:25;100929.72;;;23.75;50.40
75938;BME280;64615;32.062;34.834;2023-12-04T01:39:51;100933.25;;;23.76;50.45
75938;BME280;64615;32.062;34.834;2023-12-04T01:42:16;100931.31;;;23.76;50.52
75938;BME280;64615;32.062;34.834;2023-12-04T01:44:42;100930.25;;;23.77;50.46
75938;BME280;64615;32.062;34.834;2023-12-04T01:47:08;100926.44;;;23.78;50.21
75938;BME280;64615;32.062;34.834;2023-12-04T01:49:34;100923.47;;;23.80;50.26
75938;BME280;64615;32.062;34.834;2023-12-04T01:52:00;100925.09;;;23.76;50.57
75938;BME280;64615;32.062;34.834;2023-12-04T01:54:26;100920.16;;;23.73;50.06
75938;BME280;64615;32.062;34.834;2023-12-04T01:56:51;100929.38;;;23.72;50.56
75938;BME280;64615;32.062;34.834;2023-12-04T01:59:17;100927.78;;;23.71;50.33
75938;BME280;64615;32.062;34.834;2023-12-04T02:01:43;100931.56;;;23.70;50.29
75938;BME280;64615;32.062;34.834;2023-12-04T02:04:09;100927.78;;;23.71;50.22
75938;BME280;64615;32.062;34.834;2023-12-04T02:06:35;100926.38;;;23.68;50.30
75938;BME280;64615;32.062;34.834;2023-12-04T02:09:01;100937.25;;;23.68;50.24
75938;BME280;64615;32.062;34.834;2023-12-04T02:11:27;100924.47;;;23.69;50.31
75938;BME280;64615;32.062;34.834;2023-12-04T02:13:53;100928.53;;;23.66;50.35
75938;BME280;64615;32.062;34.834;2023-12-04T02:16:19;100928.53;;;23.66;50.41
75938;BME280;64615;32.062;34.834;2023-12-04T02:18:45;100922.31;;;23.66;50.41
75938;BME280;64615;32.062;34.834;2023-12-04T02:21:11;100931.25;;;23.66;50.42
75938;BME280;64615;32.062;34.834;2023-12-04T02:23:37;100931.53;;;23.64;50.61
75938;BME280;64615;32.062;34.834;2023-12-04T02:26:09;100933.97;;;23.66;50.47
75938;BME280;64615;32.062;34.834;2023-12-04T02:28:36;100931.00;;;23.68;50.67
75938;BME280;64615;32.062;34.834;2023-12-04T02:31:04;100932.63;;;23.69;50.47
75938;BME280;64615;32.062;34.834;2023-12-04T02:33:31;100934.28;;;23.70;50.58
75938;BME280;64615;32.062;34.834;2023-12-04T02:35:59;100932.94;;;23.72;50.47
75938;BME280;64615;32.062;34.834;2023-12-04T02:38:27;100937.28;;;23.73;50.26
75938;BME280;64615;32.062;34.834;2023-12-04T02:40:52;100937.28;;;23.73;50.29
75938;BME280;64615;32.062;34.834;2023-12-04T02:43:18;100943.28;;;23.75;50.21
75938;BME280;64615;32.062;34.834;2023-12-04T02:45:44;100938.41;;;23.77;50.21
75938;BME280;64615;32.062;34.834;2023-12-04T02:48:09;100952.81;;;23.78;50.35
75938;BME280;64615;32.062;34.834;2023-12-04T02:50:35;100953.88;;;23.77;50.50
75938;BME280;64615;32.062;34.834;2023-12-04T02:53:01;100952.81;;;23.78;50.31
75938;BME280;64615;32.062;34.834;2023-12-04T02:55:27;100954.75;;;23.82;49.94
75938;BME280;64615;32.062;34.834;2023-12-04T02:57:53;100958.84;;;23.85;50.03
75938;BME280;64615;32.062;34.834;2023-12-04T03:00:19;100963.72;;;23.83;50.04
75938;BME280;64615;32.062;34.834;2023-12-04T03:02:44;100967.22;;;23.78;50.47
75938;BME280;64615;32.062;34.834;2023-12-04T03:05:10;100971.56;;;23.74;50.24
75938;BME280;64615;32.062;34.834;2023-12-04T03:07:36;100972.06;;;23.71;50.46
75938;BME280;64615;32.062;34.834;2023-12-04T03:10:01;100983.22;;;23.70;50.43
75938;BME280;64615;32.062;34.834;2023-12-04T03:12:27;100974.47;;;23.68;50.19
75938;BME280;64615;32.062;34.834;2023-12-04T03:14:53;100969.28;;;23.66;50.67
75938;BME280;64615;32.062;34.834;2023-12-04T03:17:18;100973.13;;;23.65;50.54
75938;BME280;64615;32.062;34.834;2023-12-04T03:19:44;100980.44;;;23.64;50.39
75938;BME280;64615;32.062;34.834;2023-12-04T03:22:09;100980.69;;;23.63;50.48
75938;BME280;64615;32.062;34.834;2023-12-04T03:24:35;100982.59;;;23.62;50.27
75938;BME280;64615;32.062;34.834;2023-12-04T03:27:01;100993.47;;;23.62;50.53
75938;BME280;64615;32.062;34.834;2023-12-04T03:29:27;100988.03;;;23.62;50.47
75938;BME280;64615;32.062;34.834;2023-12-04T03:31:53;101000.78;;;23.62;50.46
75938;BME280;64615;32.062;34.834;2023-12-04T03:34:18;101003.75;;;23.60;50.50
75938;BME280;64615;32.062;34.834;2023-12-04T03:36:44;101005.41;;;23.61;50.38
75938;BME280;64615;32.062;34.834;2023-12-04T03:39:09;101006.75;;;23.59;50.49
75938;BME280;64615;32.062;34.834;2023-12-04T03:41:35;101004.88;;;23.59;50.61
75938;BME280;64615;32.062;34.834;2023-12-04T03:44:00;101008.66;;;23.58;50.34
75938;BME280;64615;32.062;34.834;2023-12-04T03:46:26;101016.81;;;23.58;50.40
75938;BME280;64615;32.062;34.834;2023-12-04T03:48:51;101022.25;;;23.58;50.34
75938;BME280;64615;32.062;34.834;2023-12-04T03:51:17;101024.38;;;23.56;50.40
75938;BME280;64615;32.062;34.834;2023-12-04T03:53:43;101022.50;;;23.57;50.14
75938;BME280;64615;32.062;34.834;2023-12-04T03:56:10;101023.56;;;23.56;50.31
75938;BME280;64615;32.062;34.834;2023-12-04T03:58:36;101024.97;;;23.58;50.55
75938;BME280;64615;32.062;34.834;2023-12-04T04:01:02;101024.72;;;23.60;50.66
75938;BME280;64615;32.062;34.834;2023-12-04T04:03:28;101017.63;;;23.59;50.34
75938;BME280;64615;32.062;34.834;2023-12-04T04:05:54;101032.91;;;23.65;50.55
75938;BME280;64615;32.062;34.834;2023-12-04T04:08:19;101021.50;;;23.68;51.03
75938;BME280;64615;32.062;34.834;2023-12-04T04:10:45;101025.91;;;23.74;50.82
75938;BME280;64615;32.062;34.834;2023-12-04T04:13:11;101026.16;;;23.73;50.68
75938;BME280;64615;32.062;34.834;2023-12-04T04:15:36;101029.72;;;23.73;51.04
75938;BME280;64615;32.062;34.834;2023-12-04T04:18:02;101031.34;;;23.74;51.27
75938;BME280;64615;32.062;34.834;2023-12-04T04:20:27;101029.72;;;23.73;51.19
75938;BME280;64615;32.062;34.834;2023-12-04T04:22:53;101028.88;;;23.73;50.63
75938;BME280;64615;32.062;34.834;2023-12-04T04:25:19;101031.16;;;23.81;51.59
75938;BME280;64615;32.062;34.834;2023-12-04T04:27:47;101046.66;;;23.80;51.61
75938;BME280;64615;32.062;34.834;2023-12-04T04:30:13;101045.81;;;23.80;51.40
75938;BME280;64615;32.062;34.834;2023-12-04T04:32:39;101044.75;;;23.81;51.61
75938;BME280;64615;32.062;34.834;2023-12-04T04:35:04;101041.19;;;23.80;51.86
75938;BME280;64615;32.062;34.834;2023-12-04T04:37:30;101042.03;;;23.81;51.57
75938;BME280;64615;32.062;34.834;2023-12-04T04:39:56;101046.34;;;23.82;51.50
75938;BME280;64615;32.062;34.834;2023-12-04T04:42:22;101053.19;;;23.84;51.55
75938;BME280;64615;32.062;34.834;2023-12-04T04:44:48;101056.78;;;23.90;51.29
75938;BME280;64615;32.062;34.834;2023-12-04T04:47:14;101052.16;;;23.90;51.66
75938;BME280;64615;32.062;34.834;2023-12-04T04:49:39;101056.22;;;23.88;51.28
75938;BME280;64615;32.062;34.834;2023-12-04T04:52:07;101052.47;;;23.94;50.49
75938;BME280;64615;32.062;34.834;2023-12-04T04:54:32;101056.28;;;23.98;50.44
75938;BME280;64615;32.062;34.834;2023-12-04T04:56:58;101063.41;;;24.04;50.27
75938;BME280;64615;32.062;34.834;2023-12-04T04:59:24;101058.59;;;24.11;50.53
75938;BME280;64615;32.062;34.834;2023-12-04T05:01:49;101060.34;;;24.22;50.88
75938;BME280;64615;32.062;34.834;2023-12-04T05:04:15;101053.09;;;24.38;50.72
75938;BME280;64615;32.062;34.834;2023-12-04T05:06:40;101051.25;;;24.43;50.32
75938;BME280;64615;32.062;34.834;2023-12-04T05:09:06;101056.22;;;24.57;51.22
75938;BME280;64615;32.062;34.834;2023-12-04T05:11:32;101052.66;;;24.56;50.25
75938;BME280;64615;32.062;34.834;2023-12-04T05:13:57;101055.72;;;24.65;49.63
75938;BME280;64615;32.062;34.834;2023-12-04T05:16:23;101052.41;;;24.58;49.48
75938;BME280;64615;32.062;34.834;2023-12-04T05:18:48;101065.38;;;24.45;49.56
75938;BME280;64615;32.062;34.834;2023-12-04T05:21:14;101069.53;;;24.53;49.17
75938;BME280;64615;32.062;34.834;2023-12-04T05:23:40;101071.53;;;24.68;48.58
75938;BME280;64615;32.062;34.834;2023-12-04T05:26:06;101085.13;;;24.68;48.37
75938;BME280;64615;32.062;34.834;2023-12-04T05:28:32;101084.06;;;25.21;47.85
75938;BME280;64615;32.062;34.834;2023-12-04T05:30:58;101088.88;;;24.99;48.91
75938;BME280;64615;32.062;34.834;2023-12-04T05:33:24;101103.50;;;24.87;49.91
75938;BME280;64615;32.062;34.834;2023-12-04T05:35:49;101107.88;;;24.88;49.57
75938;BME280;64615;32.062;34.834;2023-12-04T05:38:17;101106.97;;;24.78;49.71
75938;BME280;64615;32.062;34.834;2023-12-04T05:40:43;101108.56;;;24.69;49.80
75938;BME280;64615;32.062;34.834;2023-12-04T05:43:08;101110.44;;;24.63;49.48
75938;BME280;64615;32.062;34.834;2023-12-04T05:45:34;101104.13;;;24.58;49.04
75938;BME280;64615;32.062;34.834;2023-12-04T05:48:00;101103.63;;;24.66;48.84
75938;BME280;64615;32.062;34.834;2023-12-04T05:50:25;101103.38;;;24.67;48.67
75938;BME280;64615;32.062;34.834;2023-12-04T05:52:51;101099.25;;;24.60;47.73
75938;BME280;64615;32.062;34.834;2023-12-04T05:55:17;101097.63;;;24.64;47.09
75938;BME280;64615;32.062;34.834;2023-12-04T05:57:44;101099.81;;;24.67;46.21
75938;BME280;64615;32.062;34.834;2023-12-04T06:00:10;101098.22;;;24.71;45.69
75938;BME280;64615;32.062;34.834;2023-12-04T06:02:42;101099.66;;;24.83;45.00
75938;BME280;64615;32.062;34.834;2023-12-04T06:05:09;101094.50;;;24.87;44.25
75938;BME280;64615;32.062;34.834;2023-12-04T06:07:35;101096.47;;;24.97;44.27
75938;BME280;64615;32.062;34.834;2023-12-04T06:10:01;101090.78;;;25.03;43.78
75938;BME280;64615;32.062;34.834;2023-12-04T06:12:26;101088.38;;;25.07;43.31
75938;BME280;64615;32.062;34.834;2023-12-04T06:14:52;101090.81;;;25.08;43.51
75938;BME280;64615;32.062;34.834;2023-12-04T06:17:18;101084.56;;;25.18;42.86
75938;BME280;64615;32.062;34.834;2023-12-04T06:19:43;101088.13;;;25.18;42.88
75938;BME280;64615;32.062;34.834;2023-12-04T06:22:09;101082.69;;;25.23;42.52
75938;BME280;64615;32.062;34.834;2023-12-04T06:24:35;101092.00;;;25.27;42.25
75938;BME280;64615;32.062;34.834;2023-12-04T06:27:01;101091.19;;;25.27;42.10
75938;BME280;64615;32.062;34.834;2023-12-04T06:29:27;101102.06;;;25.27;43.54
75938;BME280;64615;32.062;34.834;2023-12-04T06:31:53;101094.19;;;25.30;44.25
75938;BME280;64615;32.062;34.834;2023-12-04T06:34:19;101099.91;;;25.34;44.50
75938;BME280;64615;32.062;34.834;2023-12-04T06:36:45;101093.38;;;25.35;45.18
75938;BME280;64615;32.062;34.834;2023-12-04T06:39:11;101096.94;;;25.41;44.59
75938;BME280;64615;32.062;34.834;2023-12-04T06:41:39;101097.75;;;25.41;45.13
75938;BME280;64615;32.062;34.834;2023-12-04T06:44:05;101094.22;;;25.46;44.23
75938;BME280;64615;32.062;34.834;2023-12-04T06:46:34;101087.97;;;25.50;44.23
75938;BME280;64615;32.062;34.834;2023-12-04T06:49:06;101086.63;;;25.53;44.33
75938;BME280;64615;32.062;34.834;2023-12-04T06:51:32;101080.88;;;25.54;43.81
75938;BME280;64615;32.062;34.834;2023-12-04T06:53:58;101086.91;;;25.56;43.51
75938;BME280;64615;32.062;34.834;2023-12-04T06:56:24;101081.47;;;25.56;43.32
75938;BME280;64615;32.062;34.834;2023-12-04T06:58:49;101076.56;;;25.58;43.36
75938;BME280;64615;32.062;34.834;2023-12-04T07:01:15;101081.19;;;25.58;43.95
75938;BME280;64615;32.062;34.834;2023-12-04T07:03:40;101088.56;;;25.57;43.61
75938;BME280;64615;32.062;34.834;2023-12-04T07:06:06;101082.56;;;25.60;43.79
75938;BME280;64615;32.062;34.834;2023-12-04T07:08:32;101076.28;;;25.65;43.86
75938;BME280;64615;32.062;34.834;2023-12-04T07:10:58;101075.22;;;25.66;44.06
75938;BME280;64615;32.062;34.834;2023-12-04T07:13:23;101083.94;;;25.68;44.55
75938;BME280;64615;32.062;34.834;2023-12-04T07:15:49;101080.66;;;25.66;44.42
75938;BME280;64615;32.062;34.834;2023-12-04T07:18:14;101081.75;;;25.65;44.32
75938;BME280;64615;32.062;34.834;2023-12-04T07:20:40;101085.03;;;25.62;45.01
75938;BME280;64615;32.062;34.834;2023-12-04T07:23:05;101082.56;;;25.60;44.99
75938;BME280;64615;32.062;34.834;2023-12-04T07:25:31;101083.09;;;25.57;44.96
75938;BME280;64615;32.062;34.834;2023-12-04T07:27:57;101086.91;;;25.56;44.89
75938;BME280;64615;32.062;34.834;2023-12-04T07:30:25;101087.44;;;25.53;45.27
75938;BME280;64615;32.062;34.834;2023-12-04T07:32:51;101077.88;;;25.51;45.06
75938;BME280;64615;32.062;34.834;2023-12-04T07:35:17;101077.59;;;25.47;45.32
75938;BME280;64615;32.062;34.834;2023-12-04T07:37:43;101086.59;;;25.43;44.87
75938;BME280;64615;32.062;34.834;2023-12-04T07:40:09;101084.94;;;25.42;45.03
75938;BME280;64615;32.062;34.834;2023-12-04T07:42:36;101086.84;;;25.36;45.46
75938;BME280;64615;32.062;34.834;2023-12-04T07:45:02;101080.00;;;25.33;44.90
75938;BME280;64615;32.062;34.834;2023-12-04T07:47:29;101078.66;;;25.31;44.40
75938;BME280;64615;32.062;34.834;2023-12-04T07:49:54;101076.44;;;25.28;44.32
75938;BME280;64615;32.062;34.834;2023-12-04T07:52:20;101077.81;;;25.25;44.93
75938;BME280;64615;32.062;34.834;2023-12-04T07:54:45;101075.09;;;25.25;45.17
75938;BME280;64615;32.062;34.834;2023-12-04T07:57:11;101070.97;;;25.23;45.30
75938;BME280;64615;32.062;34.834;2023-12-04T07:59:37;101066.06;;;25.20;45.37
75938;BME280;64615;32.062;34.834;2023-12-04T08:02:02;101076.72;;;25.21;45.54
75938;BME280;64615;32.062;34.834;2023-12-04T08:04:28;101072.91;;;25.22;45.51
75938;BME280;64615;32.062;34.834;2023-12-04T08:06:54;101067.16;;;25.19;45.19
75938;BME280;64615;32.062;34.834;2023-12-04T08:09:20;101069.06;;;25.18;45.47
75938;BME280;64615;32.062;34.834;2023-12-04T08:11:46;101069.84;;;25.14;45.16
75938;BME280;64615;32.062;34.834;2023-12-04T08:14:12;101069.03;;;25.13;45.02
75938;BME280;64615;32.062;34.834;2023-12-04T08:16:37;101063.06;;;25.11;44.96
75938;BME280;64615;32.062;34.834;2023-12-04T08:19:03;101058.69;;;25.10;44.95
75938;BME280;64615;32.062;34.834;2023-12-04T08:21:29;101060.59;;;25.10;45.14
75938;BME280;64615;32.062;34.834;2023-12-04T08:23:54;101046.41;;;25.13;44.80
75938;BME280;64615;32.062;34.834;2023-12-04T08:26:24;101046.16;;;25.09;45.12
75938;BME280;64615;32.062;34.834;2023-12-04T08:28:50;101045.06;;;25.10;45.25
75938;BME280;64615;32.062;34.834;2023-12-04T08:31:16;101037.72;;;25.11;44.72
75938;BME280;64615;32.062;34.834;2023-12-04T08:33:42;101034.16;;;25.10;45.19
75938;BME280;64615;32.062;34.834;2023-12-04T08:36:10;101035.25;;;25.09;45.21
75938;BME280;64615;32.062;34.834;2023-12-04T08:38:35;101035.50;;;25.08;44.93
75938;BME280;64615;32.062;34.834;2023-12-04T08:41:02;101036.63;;;25.07;45.13
75938;BME280;64615;32.062;34.834;2023-12-04T08:43:28;101028.69;;;25.05;45.40
75938;BME280;64615;32.062;34.834;2023-12-04T08:45:54;101024.34;;;25.04;45.45
75938;BME280;64615;32.062;34.834;2023-12-04T08:48:20;101012.09;;;25.07;45.52
75938;BME280;64615;32.062;34.834;2023-12-04T08:50:46;101007.44;;;25.07;45.14
75938;BME280;64615;32.062;34.834;2023-12-04T08:53:12;101010.47;;;25.06;45.47
75938;BME280;64615;32.062;34.834;2023-12-04T08:55:38;101007.44;;;25.02;45.52
75938;BME280;64615;32.062;34.834;2023-12-04T08:58:03;101014.25;;;25.00;45.71
75938;BME280;64615;32.062;34.834;2023-12-04T09:00:30;101006.34;;;24.98;45.64
75938;BME280;64615;32.062;34.834;2023-12-04T09:02:55;100998.41;;;24.97;45.77
75938;BME280;64615;32.062;34.834;2023-12-04T09:05:21;100994.34;;;24.94;45.85
75938;BME280;64615;32.062;34.834;2023-12-04T09:07:47;100992.16;;;24.91;45.69
75938;BME280;64615;32.062;34.834;2023-12-04T09:10:13;100981.53;;;24.89;46.20
75938;BME280;64615;32.062;34.834;2023-12-04T09:12:40;100977.16;;;24.88;46.33
75938;BME280;64615;32.062;34.834;2023-12-04T09:15:06;100983.69;;;24.87;46.57
75938;BME280;64615;32.062;34.834;2023-12-04T09:17:32;100970.91;;;24.88;46.57
75938;BME280;64615;32.062;34.834;2023-12-04T09:19:57;100970.06;;;24.87;46.56
75938;BME280;64615;32.062;34.834;2023-12-04T09:22:23;100962.72;;;24.88;46.71
75938;BME280;64615;32.062;34.834;2023-12-04T09:24:49;100961.94;;;24.98;46.61
75938;BME280;64615;32.062;34.834;2023-12-04T09:27:15;100955.66;;;25.02;47.04
75938;BME280;64615;32.062;34.834;2023-12-04T09:29:42;100951.34;;;25.01;46.86
75938;BME280;64615;32.062;34.834;2023-12-04T09:32:08;100946.66;;;24.97;47.01
75938;BME280;64615;32.062;34.834;2023-12-04T09:34:35;100945.59;;;24.98;47.10
75938;BME280;64615;32.062;34.834;2023-12-04T09:37:00;100944.25;;;24.95;47.03
75938;BME280;64615;32.062;34.834;2023-12-04T09:39:26;100943.41;;;24.95;47.53
75938;BME280;64615;32.062;34.834;2023-12-04T09:41:52;100939.59;;;24.96;47.56
75938;BME280;64615;32.062;34.834;2023-12-04T09:44:19;100938.50;;;24.97;47.98
75938;BME280;64615;32.062;34.834;2023-12-04T09:46:45;100937.97;;;24.95;47.63
75938;BME280;64615;32.062;34.834;2023-12-04T09:49:11;100930.31;;;24.97;48.01
75938;BME280;64615;32.062;34.834;2023-12-04T09:51:37;100925.44;;;24.99;47.89
75938;BME280;64615;32.062;34.834;2023-12-04T09:54:03;100927.66;;;25.02;47.57
75938;BME280;64615;32.062;34.834;2023-12-04T09:56:30;100923.81;;;25.03;47.54
75938;BME280;64615;32.062;34.834;2023-12-04T09:59:00;100924.91;;;25.02;48.00
75938;BME280;64615;32.062;34.834;2023-12-04T10:01:29;100911.03;;;25.08;47.71
75938;BME280;64615;32.062;34.834;2023-12-04T10:03:57;100916.47;;;25.08;47.94
75938;BME280;64615;32.062;34.834;2023-12-04T10:06:25;100906.94;;;25.11;48.21
75938;BME280;64615;32.062;34.834;2023-12-04T10:08:51;100904.22;;;25.11;48.05
75938;BME280;64615;32.062;34.834;2023-12-04T10:11:17;100911.31;;;25.12;48.04
75938;BME280;64615;32.062;34.834;2023-12-04T10:13:42;100897.97;;;25.10;48.15
75938;BME280;64615;32.062;34.834;2023-12-04T10:16:08;100902.03;;;25.13;47.74
75938;BME280;64615;32.062;34.834;2023-12-04T10:18:34;100890.59;;;25.16;48.08
75938;BME280;64615;32.062;34.834;2023-12-04T10:21:00;100888.69;;;25.16;47.88
75938;BME280;64615;32.062;34.834;2023-12-04T10:23:38;100891.69;;;25.15;47.63
75938;BME280;64615;32.062;34.834;2023-12-04T10:26:05;100882.44;;;25.16;47.99
75938;BME280;64615;32.062;34.834;2023-12-04T10:28:30;100882.97;;;25.18;47.68
75938;BME280;64615;32.062;34.834;2023-12-04T10:30:56;100882.97;;;25.18;47.74
75938;BME280;64615;32.062;34.834;2023-12-04T10:33:24;100876.44;;;25.19;47.85
75938;BME280;64615;32.062;34.834;2023-12-04T10:35:51;100879.72;;;25.16;48.08
75938;BME280;64615;32.062;34.834;2023-12-04T10:38:18;100875.59;;;25.13;47.66
75938;BME280;64615;32.062;34.834;2023-12-04T10:40:43;100876.44;;;25.19;47.83
75938;BME280;64615;32.062;34.834;2023-12-04T10:43:11;100874.78;;;25.23;47.87
75938;BME280;64615;32.062;34.834;2023-12-04T10:45:38;100870.44;;;25.27;47.42
75938;BME280;64615;32.062;34.834;2023-12-04T10:48:05;100879.44;;;25.33;47.79
75938;BME280;64615;32.062;34.834;2023-12-04T10:50:41;100869.06;;;25.29;47.58
75938;BME280;64615;32.062;34.834;2023-12-04T10:53:08;100875.09;;;25.26;47.86
75938;BME280;64615;32.062;34.834;2023-12-04T10:55:35;100877.00;;;25.31;47.09
75938;BME280;64615;32.062;34.834;2023-12-04T10:58:02;100865.53;;;25.24;47.34
75938;BME280;64615;32.062;34.834;2023-12-04T11:00:33;100870.97;;;25.34;47.42
75938;BME280;64615;32.062;34.834;2023-12-04T11:03:04;100869.34;;;25.28;47.65
75938;BME280;64615;32.062;34.834;2023-12-04T11:05:36;100872.63;;;25.15;47.69
75938;BME280;64615;32.062;34.834;2023-12-04T11:08:02;100868.50;;;25.07;47.70
75938;BME280;64615;32.062;34.834;2023-12-04T11:10:31;100861.97;;;25.03;47.91
75938;BME280;64615;32.062;34.834;2023-12-04T11:13:17;100867.44;;;25.18;48.42
75938;BME280;64615;32.062;34.834;2023-12-04T11:15:48;100867.44;;;25.08;48.13
75938;BME280;64615;32.062;34.834;2023-12-04T11:18:16;100872.06;;;25.08;48.66
75938;BME280;64615;32.062;34.834;2023-12-04T11:20:56;100870.44;;;25.07;48.48
75938;BME280;64615;32.062;34.834;2023-12-04T11:23:25;100867.44;;;25.08;48.48
75938;BME280;64615;32.062;34.834;2023-12-04T11:25:51;100865.53;;;25.14;48.22
75938;BME280;64615;32.062;34.834;2023-12-04T11:28:19;100868.81;;;25.26;47.49
75938;BME280;64615;32.062;34.834;2023-12-04T11:30:45;100869.91;;;25.35;47.19
75938;BME280;64615;32.062;34.834;2023-12-04T11:33:11;100868.81;;;25.26;47.39
75938;BME280;64615;32.062;34.834;2023-12-04T11:35:38;100859.56;;;25.22;47.89
75938;BME280;64615;32.062;34.834;2023-12-04T11:38:07;100863.63;;;25.19;47.95
75938;BME280;64615;32.062;34.834;2023-12-04T11:40:34;100867.44;;;25.23;48.04
75938;BME280;64615;32.062;34.834;2023-12-04T11:43:20;100866.91;;;25.21;48.53
75938;BME280;64615;32.062;34.834;2023-12-04T11:45:47;100867.72;;;25.07;48.87
75938;BME280;64615;32.062;34.834;2023-12-04T11:48:14;100868.50;;;25.02;48.95
75938;BME280;64615;32.062;34.834;2023-12-04T11:50:40;100864.44;;;25.00;48.52
75938;BME280;64615;32.062;34.834;2023-12-04T11:53:06;100866.09;;;25.06;48.74
75938;BME280;64615;32.062;34.834;2023-12-04T11:55:35;100865.00;;;25.07;48.97
75938;BME280;64615;32.062;34.834;2023-12-04T11:58:09;100868.81;;;25.06;49.06
75938;BME280;64615;32.062;34.834;2023-12-04T12:00:35;100869.63;;;25.06;48.68
75938;BME280;64615;32.062;34.834;2023-12-04T12:03:03;100868.50;;;25.07;48.91
75938;BME280;64615;32.062;34.834;2023-12-04T12:05:32;100880.78;;;25.05;48.58
75938;BME280;64615;32.062;34.834;2023-12-04T12:08:08;100884.59;;;25.04;48.78
75938;BME280;64615;32.062;34.834;2023-12-04T12:10:34;100886.25;;;25.15;48.80
75938;BME280;64615;32.062;34.834;2023-12-04T12:13:00;100887.88;;;25.26;48.65
75938;BME280;64615;32.062;34.834;2023-12-04T12:15:27;100891.69;;;25.20;48.96
75938;BME280;64615;32.062;34.834;2023-12-04T12:17:53;100896.88;;;25.21;48.50
75938;BME280;64615;32.062;34.834;2023-12-04T12:20:19;100894.41;;;25.25;48.88
75938;BME280;64615;32.062;34.834;2023-12-04T12:22:47;100902.31;;;25.16;48.71
75938;BME280;64615;32.062;34.834;2023-12-04T12:25:13;100900.13;;;25.13;49.06
75938;BME280;64615;32.062;34.834;2023-12-04T12:27:39;100907.47;;;25.13;48.87
75938;BME280;64615;32.062;34.834;2023-12-04T12:30:06;100903.41;;;25.10;48.94
75938;BME280;64615;32.062;34.834;2023-12-04T12:32:35;100906.66;;;25.12;49.23
75938;BME280;64615;32.062;34.834;2023-12-04T12:35:01;100894.16;;;25.11;49.41